FBSK/GBE METAR and TAF weather

Enter ICAO airport designator
Station Type Date Time Source
FBSK METAR 2019/02/20 23:00 UTC NOAA

FBSK 202300Z 14002KT CAVOK 22/14 Q1018 NOSIG


Station Type Date Time Source
FBSK Decoded METAR 2019/02/20 23:00 UTC NOAA

Seretse Khama International Airport, Botswana (FBSK) 24-13S 025-55E 1005M
Feb 20, 2019 - 06:00 PM EST / 2019.02.20 2300 UTC
Wind: from the SE (140 degrees) at 2 MPH (2 KT):0
Visibility: greater than 7 mile(s):0
Temperature: 71 F (22 C)
Dew Point: 57 F (14 C)
Relative Humidity: 60%
Pressure (altimeter): 30.06 in. Hg (1018 hPa)
ob: FBSK 202300Z 14002KT CAVOK 22/14 Q1018 NOSIG
cycle: 23

Station Type Date Time Source
FBSK TAF 2019/02/20 18:58 UTC NOAA

TAF FBSK 201500Z 2018/2124 31008KT CAVOK


Example: see airport list